Terminal Aerodrome Forecast
Issued by NWS Jackson, MS

Home | Current Version | Previous Version | Text Only | Print | Product List | Glossary On
Versions: 1 2 3 4 5 6 7 8 9 10 11 12
234
FTUS44 KJAN 221120
TAFMEI
TAF
KMEI 221120Z 2212/2312 11007KT P6SM VCSH OVC017
     FM221500 16015G22KT 5SM SHRA VCTS BKN007CB OVC020
     FM222100 19013G21KT 4SM -RA BR OVC015
     FM230000 22007KT 4SM -RA OVC050
     FM230600 21006KT P6SM OVC015=

USA.gov is the U.S. government's official web portal to all federal, state and local government web resources and services.